Bretagne — FNBR — position and weather

sailwx.info

Track history (hours):
 
Tides and Currents Weather Stations Pressure Air Temp Water Temp Dewpoint Dewpoint Depression Visibility Wind Speed Wind Dir Waves Ship Positions

Bretagne

Operator: Brittany Ferries

Last reported at 2019-Jul-16 23:00 UTC. Time now 2019-Jul-16 23:05 UTC.
Position N 50°10' W 001°37'.

Length 151 m; beam 27 m.

Type: Ship. MMSI: 227286000.

Date/timePositionNaut miles runAvg speedWind from/ knotsBaromVisibWave heightAir tempDewpointWater temp
2019-Jul-16 23:00N 50°10' W 001°37'816.0
2019-Jul-16 22:30N 50°16' W 001°31'815.5
2019-Jul-16 22:00N 50°22' W 001°23'714.8
2019-Jul-16 21:30N 50°28' W 001°16'714.1
2019-Jul-16 21:01N 50°34' W 001°10'713.2
2019-Jul-16 20:31N 50°40' W 001°05'5 9.5
2019-Jul-16 20:00N 50°45' W 001°05'4 8.5
2019-Jul-16 19:31N 50°48' W 001°07'1 1.6
2019-Jul-16 18:59N 50°49' W 001°06'0 0.0
2019-Jul-16 18:29N 50°49' W 001°06'0 0.0
2019-Jul-16 17:59N 50°49' W 001°06'0 0.0
2019-Jul-16 17:29N 50°49' W 001°06'1 1.7
2019-Jul-16 17:00N 50°48' W 001°07'611.6
2019-Jul-16 16:31N 50°43' W 001°03'612.0
2019-Jul-16 16:00N 50°37' W 001°06'918.3
2019-Jul-16 15:31N 50°30' W 001°14'918.2
2019-Jul-16 15:00N 50°22' W 001°23'918.0
2019-Jul-16 14:30N 50°15' W 001°30'917.3
2019-Jul-16 14:00N 50°08' W 001°38'917.0
2019-Jul-16 13:29N 50°00' W 001°46'916.7
2019-Jul-16 12:59N 49°53' W 001°53'816.3
2019-Jul-16 12:28N 49°47' W 002°01'714.5
2019-Jul-16 12:00N 49°41' W 002°06'816.4
2019-Jul-16 11:30N 49°33' W 002°11'918.3
2019-Jul-16 11:00N 49°25' W 002°16'1119.0
2019-Jul-16 10:25N 49°14' W 002°22'1220.1
2019-Jul-16 09:49N 49°02' W 002°22'620.5
2019-Jul-16 09:30N 48°56' W 002°21'1120.7
2019-Jul-16 09:00N 48°47' W 002°12'1018.9
2019-Jul-16 08:28N 48°39' W 002°03'1 2.0
2019-Jul-16 07:55N 48°38' W 002°02'0 0.0
2019-Jul-16 07:27N 48°38' W 002°02'0 0.0
2019-Jul-16 06:46N 48°38' W 002°02'0 0.0
2019-Jul-16 06:28N 48°38' W 002°02'0 0.2
2019-Jul-16 06:00N 48°38' W 002°02'611.2
2019-Jul-16 05:30N 48°43' W 002°07'711.4
2019-Jul-16 04:55N 48°49' W 002°12'512.1
2019-Jul-16 04:30N 48°52' W 002°18'612.5
2019-Jul-16 04:00N 48°58' W 002°22'612.8
2019-Jul-16 03:30N 49°04' W 002°22'613.0
2019-Jul-16 03:00N 49°10' W 002°22'713.5
2019-Jul-16 02:30N 49°17' W 002°21'713.3
2019-Jul-16 02:01N 49°23' W 002°17'714.1
2019-Jul-16 01:31N 49°30' W 002°12'714.6
2019-Jul-16 01:01N 49°36' W 002°07'1019.4
2019-Jul-16 00:31N 49°45' W 002°01'917.9
2019-Jul-16 00:01N 49°53' W 001°54'917.1
2019-Jul-15 23:30N 49°60' W 001°46'816.4
2019-Jul-15 23:01N 50°07' W 001°40'816.0
2019-Jul-15 22:30N 50°14' W 001°33'815.4
2019-Jul-15 22:01N 50°20' W 001°26'815.0
2019-Jul-15 21:30N 50°26' W 001°19'714.3
2019-Jul-15 21:01N 50°32' W 001°13'713.6
2019-Jul-15 20:31N 50°37' W 001°07'612.2
2019-Jul-15 20:01N 50°43' W 001°03'611.7
2019-Jul-15 19:30N 50°48' W 001°07'1 1.7
2019-Jul-15 18:58N 50°49' W 001°06'0 0.0
2019-Jul-15 18:28N 50°49' W 001°06'0 0.0
2019-Jul-15 17:58N 50°49' W 001°06'0 0.0
2019-Jul-15 17:28N 50°49' W 001°06'1 2.5
2019-Jul-15 17:00N 50°48' W 001°07'713.5
2019-Jul-15 16:30N 50°42' W 001°03'816.9
2019-Jul-15 16:00N 50°34' W 001°09'1019.1
2019-Jul-15 15:30N 50°26' W 001°17'1018.6
2019-Jul-15 14:59N 50°18' W 001°26'918.2
2019-Jul-15 14:30N 50°11' W 001°33'917.5
2019-Jul-15 13:59N 50°03' W 001°41'816.8
2019-Jul-15 13:30N 49°57' W 001°49'1016.6
2019-Jul-15 12:56N 49°49' W 001°58'715.6
2019-Jul-15 12:31N 49°44' W 002°03'714.7
2019-Jul-15 12:00N 49°37' W 002°07'816.8
2019-Jul-15 11:30N 49°29' W 002°13'917.7
2019-Jul-15 11:00N 49°21' W 002°18'918.2
2019-Jul-15 10:30N 49°12' W 002°22'1019.7
2019-Jul-15 10:00N 49°02' W 002°22'2719.1
2019-Jul-15 08:37N 48°39' W 002°03'18 4.5
2019-Jul-15 04:34N 48°53' W 002°20'1212.3
2019-Jul-15 03:33N 49°06' W 002°23'113.1
2019-Jul-15 03:28N 49°07' W 002°22'613.0
2019-Jul-15 03:00N 49°13' W 002°22'612.3
2019-Jul-15 02:30N 49°19' W 002°20'612.6
2019-Jul-15 02:00N 49°24' W 002°15'713.3
2019-Jul-15 01:30N 49°30' W 002°10'713.8
2019-Jul-15 01:00N 49°36' W 002°06'918.1
2019-Jul-15 00:31N 49°45' W 002°01'1218.2
2019-Jul-14 23:53N 49°55' W 001°52'1717.2
2019-Jul-14 22:53N 50°09' W 001°38'1016.1
2019-Jul-14 22:15N 50°17' W 001°28'1014.9
2019-Jul-14 21:35N 50°26' W 001°19'111.7
2019-Jul-14 21:29N 50°26' W 001°18'511.4
2019-Jul-14 21:00N 50°31' W 001°13'612.1
2019-Jul-14 20:30N 50°36' W 001°08'713.7
2019-Jul-14 20:00N 50°42' W 001°03'612.8
2019-Jul-14 19:30N 50°48' W 001°07'1 2.3
2019-Jul-14 19:00N 50°49' W 001°06'0 0.0
2019-Jul-14 18:30N 50°49' W 001°06'0 0.0
2019-Jul-14 18:00N 50°49' W 001°06'0 0.0
2019-Jul-14 17:30N 50°49' W 001°06'1 2.8
2019-Jul-14 17:01N 50°47' W 001°07'4 7.9
2019-Jul-14 16:30N 50°44' W 001°03'714.1
2019-Jul-14 16:00N 50°37' W 001°07'1020.2
2019-Jul-14 15:30N 50°29' W 001°17'1119.4
2019-Jul-14 14:55N 50°20' W 001°27'1019.0
2019-Jul-14 14:23N 50°12' W 001°36'718.3
2019-Jul-14 14:00N 50°06' W 001°42'917.8
2019-Jul-14 13:31N 49°59' W 001°50'917.3
2019-Jul-14 13:00N 49°52' W 001°59'816.7
2019-Jul-14 12:30N 49°44' W 002°04'815.3
2019-Jul-14 12:01N 49°37' W 002°08'816.7
2019-Jul-14 11:30N 49°29' W 002°13'917.3
2019-Jul-14 11:00N 49°21' W 002°18'917.5
2019-Jul-14 10:30N 49°13' W 002°21'1019.2
2019-Jul-14 10:00N 49°03' W 002°22'26 6.2
2019-Jul-14 05:46N 48°40' W 002°05'1512.2
2019-Jul-14 04:34N 48°51' W 002°18'111.7
2019-Jul-14 04:28N 48°52' W 002°20'511.2
2019-Jul-14 04:00N 48°57' W 002°22'612.0
2019-Jul-14 03:31N 49°03' W 002°22'612.3
2019-Jul-14 03:01N 49°09' W 002°22'612.0
2019-Jul-14 02:30N 49°15' W 002°21'611.5
2019-Jul-14 02:01N 49°21' W 002°19'3414.6
2019-Jul-13 23:39N 49°51' W 001°54'3516.7
2019-Jul-13 21:31N 50°21' W 001°24'615.9
2019-Jul-13 21:08N 50°26' W 001°19'212.0
2019-Jul-13 21:00N 50°27' W 001°18'612.5
2019-Jul-13 20:30N 50°32' W 001°12'713.0
2019-Jul-13 20:01N 50°38' W 001°06'612.8
2019-Jul-13 19:30N 50°44' W 001°04'5 9.4
2019-Jul-13 19:00N 50°49' W 001°06'0 0.3
2019-Jul-13 18:30N 50°49' W 001°06'0 0.0
2019-Jul-13 18:00N 50°49' W 001°06'0 0.0
2019-Jul-13 17:30N 50°49' W 001°06'0 0.0
2019-Jul-13 17:00N 50°49' W 001°06'3 6.5
2019-Jul-13 16:30N 50°45' W 001°05'713.5
2019-Jul-13 16:01N 50°39' W 001°05'1020.5
2019-Jul-13 15:30N 50°29' W 001°12'1020.0
2019-Jul-13 15:00N 50°21' W 001°21'2019.5
2019-Jul-13 13:59N 50°04' W 001°37'1018.6
2019-Jul-13 13:27N 49°57' W 001°47'1118.4
2019-Jul-13 12:49N 49°48' W 001°59'617.5
2019-Jul-13 12:30N 49°43' W 002°03'816.8
2019-Jul-13 12:01N 49°36' W 002°08'917.4
2019-Jul-13 11:30N 49°27' W 002°13'917.2
2019-Jul-13 11:01N 49°20' W 002°20'917.5
2019-Jul-13 10:30N 49°11' W 002°21'1318.8
2019-Jul-13 09:50N 48°59' W 002°21'1219.5
2019-Jul-13 09:13N 48°48' W 002°14'419.9
2019-Jul-13 09:00N 48°44' W 002°10'815.4
2019-Jul-13 08:30N 48°38' W 002°02'0 0.0
2019-Jul-13 07:56N 48°38' W 002°02'0 0.0
2019-Jul-13 07:26N 48°38' W 002°02'0 0.0
2019-Jul-13 07:00N 48°38' W 002°02'0 0.0
2019-Jul-13 06:30N 48°38' W 002°02'0 0.7
2019-Jul-13 06:00N 48°39' W 002°02'815.6
2019-Jul-13 05:31N 48°45' W 002°09'917.9
2019-Jul-13 05:00N 48°49' W 002°21'1018.9
2019-Jul-13 04:28N 48°57' W 002°30'816.0
2019-Jul-13 03:57N 49°06' W 002°30'716.8
2019-Jul-13 03:31N 49°11' W 002°23'714.7
2019-Jul-13 03:01N 49°18' W 002°20'714.4
2019-Jul-13 02:30N 49°25' W 002°16'715.0
2019-Jul-13 02:00N 49°32' W 002°11'815.2
2019-Jul-13 01:31N 49°39' W 002°07'815.7
2019-Jul-13 01:01N 49°46' W 002°01'816.5
2019-Jul-13 00:30N 49°53' W 001°54'917.1
2019-Jul-12 23:57N 50°01' W 001°45'2317.4
2019-Jul-12 22:37N 50°20' W 001°25'417.0
2019-Jul-12 22:22N 50°23' W 001°22'717.0
2019-Jul-12 21:57N 50°30' W 001°16'818.0
2019-Jul-12 21:31N 50°36' W 001°09'815.9
2019-Jul-12 21:01N 50°43' W 001°03'612.4
2019-Jul-12 20:31N 50°48' W 001°07'1 1.5
2019-Jul-12 19:58N 50°49' W 001°06'0 0.0
2019-Jul-12 19:28N 50°49' W 001°06'0 0.0
2019-Jul-12 18:58N 50°49' W 001°06'0 0.0
2019-Jul-12 18:28N 50°49' W 001°06'0 0.0
2019-Jul-12 17:58N 50°49' W 001°06'0 0.9
2019-Jul-12 17:31N 50°49' W 001°06'510.2
2019-Jul-12 17:01N 50°44' W 001°04'714.6
2019-Jul-12 16:31N 50°37' W 001°06'1121.0
2019-Jul-12 16:00N 50°28' W 001°15'1020.7
2019-Jul-12 15:30N 50°19' W 001°23'1420.5
2019-Jul-12 14:49N 50°08' W 001°38'620.3
2019-Jul-12 14:30N 50°03' W 001°43'1120.1
2019-Jul-12 13:57N 49°54' W 001°53'816.9
2019-Jul-12 13:29N 49°47' W 001°59'1019.8
2019-Jul-12 13:00N 49°39' W 002°06'1019.4
2019-Jul-12 12:30N 49°30' W 002°12'918.8
2019-Jul-12 12:00N 49°21' W 002°18'918.4
2019-Jul-12 11:30N 49°12' W 002°21'1318.1
2019-Jul-12 10:48N 48°60' W 002°22'1017.9
2019-Jul-12 10:14N 48°50' W 002°16'15 6.4
2019-Jul-12 07:55N 48°38' W 002°02'0 0.1
2019-Jul-12 06:03N 48°38' W 002°02'0 0.7
2019-Jul-12 06:00N 48°38' W 002°02'712.1
2019-Jul-12 05:28N 48°44' W 002°07'510.6
2019-Jul-12 05:00N 48°48' W 002°12'610.6
2019-Jul-12 04:28N 48°52' W 002°18'511.0
2019-Jul-12 04:00N 48°56' W 002°22'714.6
2019-Jul-12 03:30N 49°03' W 002°24'914.5
2019-Jul-12 02:54N 49°12' W 002°25'1613.0
2019-Jul-12 01:41N 49°27' W 002°15'513.8
2019-Jul-12 01:18N 49°31' W 002°12'413.6
2019-Jul-12 01:00N 49°35' W 002°09'814.0
2019-Jul-12 00:28N 49°42' W 002°04'714.5
2019-Jul-12 00:01N 49°48' W 001°60'815.6
2019-Jul-11 23:30N 49°54' W 001°52'816.1
2019-Jul-11 23:01N 50°01' W 001°45'816.4
2019-Jul-11 22:30N 50°08' W 001°38'816.4
2019-Jul-11 22:01N 50°14' W 001°31'816.5
2019-Jul-11 21:31N 50°21' W 001°24'816.4
2019-Jul-11 21:00N 50°28' W 001°17'917.2
2019-Jul-11 20:31N 50°35' W 001°09'815.6
2019-Jul-11 20:01N 50°42' W 001°03'612.4
2019-Jul-11 19:30N 50°48' W 001°07'1 2.3
2019-Jul-11 18:59N 50°49' W 001°06'0 0.0
2019-Jul-11 18:29N 50°49' W 001°06'0 0.0
2019-Jul-11 17:59N 50°49' W 001°06'0 0.0
2019-Jul-11 17:30N 50°49' W 001°06'1 1.7
2019-Jul-11 17:00N 50°48' W 001°07'510.6
2019-Jul-11 16:31N 50°44' W 001°04'713.3
2019-Jul-11 16:00N 50°37' W 001°06'816.8
2019-Jul-11 15:30N 50°30' W 001°13'816.7
2019-Jul-11 15:00N 50°23' W 001°20'817.0
2019-Jul-11 14:30N 50°16' W 001°28'917.2
2019-Jul-11 14:00N 50°09' W 001°36'918.8
2019-Jul-11 13:30N 50°01' W 001°44'1120.8
2019-Jul-11 13:00N 49°53' W 001°54'1021.2
2019-Jul-11 12:30N 49°44' W 002°03'1020.6
2019-Jul-11 12:00N 49°34' W 002°08'1019.4
2019-Jul-11 11:30N 49°26' W 002°14'918.9
2019-Jul-11 11:00N 49°17' W 002°20'918.2
2019-Jul-11 10:30N 49°08' W 002°22'918.2
2019-Jul-11 10:00N 48°59' W 002°21'917.7
2019-Jul-11 09:30N 48°50' W 002°18'918.4
2019-Jul-11 09:00N 48°44' W 002°08'712.3
2019-Jul-11 08:28N 48°38' W 002°02'0 0.0
2019-Jul-11 07:58N 48°38' W 002°02'0 0.0
2019-Jul-11 07:28N 48°38' W 002°02'0 0.0
2019-Jul-11 06:58N 48°38' W 002°02'0 0.0
2019-Jul-11 06:28N 48°38' W 002°02'0 0.2
2019-Jul-11 06:00N 48°38' W 002°02'713.9
2019-Jul-11 05:30N 48°44' W 002°08'510.8
2019-Jul-11 05:01N 48°48' W 002°13'510.4
2019-Jul-11 04:30N 48°52' W 002°18'5 9.9
2019-Jul-11 04:00N 48°57' W 002°22'611.7
2019-Jul-11 03:30N 49°02' W 002°23'714.8
2019-Jul-11 03:00N 49°10' W 002°22'714.2
2019-Jul-11 02:30N 49°17' W 002°21'713.4
2019-Jul-11 02:00N 49°23' W 002°17'612.9
2019-Jul-11 01:30N 49°29' W 002°13'713.3
2019-Jul-11 01:00N 49°35' W 002°09'612.6
2019-Jul-11 00:30N 49°40' W 002°04'611.4
2019-Jul-10 23:56N 49°46' W 001°59'614.2
2019-Jul-10 23:30N 49°51' W 001°54'915.3
2019-Jul-10 22:56N 49°59' W 001°47'716.0
2019-Jul-10 22:30N 50°05' W 001°42'816.4
2019-Jul-10 22:00N 50°11' W 001°34'816.2
2019-Jul-10 21:31N 50°18' W 001°27'816.5
2019-Jul-10 21:01N 50°25' W 001°20'917.3
2019-Jul-10 20:31N 50°32' W 001°13'917.4
2019-Jul-10 20:01N 50°39' W 001°05'613.0
2019-Jul-10 19:31N 50°46' W 001°05'3 5.7
2019-Jul-10 18:59N 50°49' W 001°06'0 0.0
2019-Jul-10 18:30N 50°49' W 001°06'0 0.0
2019-Jul-10 18:00N 50°49' W 001°06'0 0.0
2019-Jul-10 17:28N 50°49' W 001°06'0 0.0
2019-Jul-10 17:00N 50°49' W 001°06'2 4.4
2019-Jul-10 16:30N 50°46' W 001°06'612.5
2019-Jul-10 16:00N 50°40' W 001°03'816.0
2019-Jul-10 15:31N 50°34' W 001°11'917.1
2019-Jul-10 15:00N 50°27' W 001°18'816.8
2019-Jul-10 14:30N 50°20' W 001°25'917.1
2019-Jul-10 14:00N 50°13' W 001°32'917.3
2019-Jul-10 13:30N 50°05' W 001°40'919.0
2019-Jul-10 13:00N 49°58' W 001°48'1020.0
2019-Jul-10 12:30N 49°49' W 001°57'1122.2
2019-Jul-10 12:01N 49°39' W 002°02'1021.0
2019-Jul-10 11:31N 49°28' W 002°01'918.1
2019-Jul-10 11:01N 49°20' W 001°56'917.4
2019-Jul-10 10:31N 49°12' W 001°52'918.1
2019-Jul-10 10:00N 49°02' W 001°51'1019.1
2019-Jul-10 09:30N 48°54' W 001°58'1119.9
2019-Jul-10 08:58N 48°44' W 002°04'613.0
2019-Jul-10 08:30N 48°38' W 002°02'0 0.0
2019-Jul-10 07:54N 48°38' W 002°02'0 0.0
2019-Jul-10 07:27N 48°38' W 002°02'0 0.0
2019-Jul-10 06:51N 48°38' W 002°02'0 0.0
2019-Jul-10 06:25N 48°38' W 002°02'0 0.0
2019-Jul-10 05:57N 48°38' W 002°02'0 0.1
2019-Jul-10 05:29N 48°38' W 002°02'4 8.3
2019-Jul-10 05:00N 48°41' W 002°06'918.2
2019-Jul-10 04:31N 48°49' W 002°14'918.1
2019-Jul-10 04:00N 48°56' W 002°22'918.3
2019-Jul-10 03:30N 49°05' W 002°25'918.0
2019-Jul-10 03:01N 49°14' W 002°24'918.1
2019-Jul-10 02:31N 49°22' W 002°17'917.4
2019-Jul-10 02:01N 49°30' W 002°12'917.3
2019-Jul-10 01:30N 49°38' W 002°07'815.2
2019-Jul-10 01:00N 49°45' W 002°03'815.3
2019-Jul-10 00:30N 49°51' W 001°55'917.2
2019-Jul-10 00:00N 49°58' W 001°48'918.2
2019-Jul-09 23:30N 50°06' W 001°40'918.8
2019-Jul-09 23:00N 50°13' W 001°32'1019.2
2019-Jul-09 22:30N 50°21' W 001°24'1019.4
2019-Jul-09 22:00N 50°30' W 001°16'1019.5
2019-Jul-09 21:31N 50°37' W 001°07'612.7
2019-Jul-09 21:00N 50°44' W 001°04'510.2
2019-Jul-09 20:30N 50°48' W 001°07'1 1.7
2019-Jul-09 19:59N 50°49' W 001°06'0 0.0
2019-Jul-09 19:29N 50°49' W 001°06'0 0.0
2019-Jul-09 18:59N 50°49' W 001°06'0 0.5
2019-Jul-09 18:31N 50°49' W 001°06'3 6.3
2019-Jul-09 18:01N 50°46' W 001°05'4 7.8
2019-Jul-09 17:30N 50°42' W 001°03'612.7
2019-Jul-09 17:01N 50°36' W 001°08'815.3
2019-Jul-09 16:31N 50°30' W 001°13'816.3
2019-Jul-09 16:00N 50°22' W 001°20'815.7
2019-Jul-09 15:30N 50°16' W 001°26'612.9
2019-Jul-09 15:00N 50°11' W 001°33'713.1
2019-Jul-09 14:30N 50°06' W 001°39'714.5
2019-Jul-09 14:00N 49°60' W 001°45'918.2
2019-Jul-09 13:30N 49°52' W 001°53'1019.9
2019-Jul-09 13:00N 49°43' W 002°00'1019.6
2019-Jul-09 12:30N 49°34' W 002°00'917.9
2019-Jul-09 12:01N 49°25' W 001°58'1120.0
2019-Jul-09 11:27N 49°14' W 001°51'919.8
2019-Jul-09 11:00N 49°06' W 001°51'918.9
2019-Jul-09 10:30N 48°57' W 001°56'1719.2
2019-Jul-09 09:38N 48°41' W 002°02'110.6
2019-Jul-09 09:30N 48°39' W 002°03'1 1.4
2019-Jul-09 08:44N 48°38' W 002°02'0 0.0
2019-Jul-09 08:29N 48°38' W 002°02'0 0.0
2019-Jul-09 07:52N 48°38' W 002°02'0 0.1
2019-Jul-09 07:08N 48°38' W 002°02'2 9.1
2019-Jul-09 06:54N 48°40' W 002°04'712.1
2019-Jul-09 06:19N 48°46' W 002°10'411.9
2019-Jul-09 05:59N 48°49' W 002°14'611.8
2019-Jul-09 05:27N 48°54' W 002°20'1012.0
2019-Jul-09 04:38N 49°03' W 002°22'212.1
2019-Jul-09 04:30N 49°05' W 002°22'612.2
2019-Jul-09 04:00N 49°11' W 002°22'612.4
2019-Jul-09 03:30N 49°17' W 002°21'612.0
2019-Jul-09 03:00N 49°23' W 002°18'611.6
2019-Jul-09 02:30N 49°28' W 002°13'612.2
2019-Jul-09 02:00N 49°33' W 002°09'714.7
2019-Jul-09 01:30N 49°40' W 002°06'612.6
2019-Jul-09 01:00N 49°46' W 002°01'611.7
2019-Jul-09 00:30N 49°50' W 001°55'612.6
2019-Jul-09 00:00N 49°54' W 001°47'713.4
2019-Jul-08 23:30N 49°59' W 001°40'714.8
2019-Jul-08 23:01N 50°05' W 001°35'612.3
2019-Jul-08 22:30N 50°11' W 001°30'813.2
2019-Jul-08 21:53N 50°17' W 001°22'616.2
2019-Jul-08 21:31N 50°22' W 001°18'816.3
2019-Jul-08 21:01N 50°29' W 001°10'816.9
2019-Jul-08 20:31N 50°36' W 001°02'714.7
2019-Jul-08 20:00N 50°43' W 000°60'713.8
2019-Jul-08 19:30N 50°48' W 001°07'1 1.9
2019-Jul-08 18:59N 50°49' W 001°06'0 0.0
2019-Jul-08 18:29N 50°49' W 001°06'0 0.0
2019-Jul-08 17:59N 50°49' W 001°06'0 0.0
2019-Jul-08 17:29N 50°49' W 001°06'3 5.7
2019-Jul-08 17:00N 50°46' W 001°05'612.7
2019-Jul-08 16:30N 50°40' W 001°05'1817.5
2019-Jul-08 15:30N 50°24' W 001°17'917.6
2019-Jul-08 15:00N 50°17' W 001°25'917.9
2019-Jul-08 14:30N 50°10' W 001°34'917.4
2019-Jul-08 14:00N 50°04' W 001°43'815.2
2019-Jul-08 13:30N 49°58' W 001°51'815.1
2019-Jul-08 13:00N 49°51' W 001°56'1019.4
2019-Jul-08 12:31N 49°42' W 002°03'1122.2
2019-Jul-08 12:01N 49°31' W 001°59'1121.4
2019-Jul-08 11:31N 49°21' W 001°56'918.6
2019-Jul-08 11:01N 49°12' W 001°51'1117.5
2019-Jul-08 10:21N 49°01' W 001°53'2316.7
2019-Jul-08 08:59N 48°38' W 002°02'0 0.0
2019-Jul-08 07:08N 48°38' W 002°02'0 0.1
2019-Jul-08 06:39N 48°38' W 002°02'211.8
2019-Jul-08 06:27N 48°40' W 002°05'716.3
2019-Jul-08 06:00N 48°46' W 002°11'815.3
2019-Jul-08 05:30N 48°52' W 002°18'911.8
2019-Jul-08 04:46N 49°00' W 002°22'312.5
2019-Jul-08 04:30N 49°04' W 002°22'612.4
2019-Jul-08 04:00N 49°10' W 002°23'612.4
2019-Jul-08 03:30N 49°16' W 002°22'713.2
2019-Jul-08 03:00N 49°22' W 002°18'612.6
2019-Jul-08 02:30N 49°28' W 002°14'612.1
2019-Jul-08 02:00N 49°33' W 002°10'815.8
2019-Jul-08 01:30N 49°41' W 002°06'913.5
2019-Jul-08 00:48N 49°49' W 001°59'713.5
2019-Jul-08 00:19N 49°54' W 001°53'413.3
2019-Jul-08 00:00N 49°57' W 001°49'1113.3
2019-Jul-07 23:12N 50°06' W 001°38'313.8
2019-Jul-07 23:00N 50°08' W 001°36'714.1
2019-Jul-07 22:30N 50°13' W 001°29'1314.7
2019-Jul-07 21:38N 50°24' W 001°17'215.0
2019-Jul-07 21:29N 50°25' W 001°14'715.2
2019-Jul-07 21:01N 50°31' W 001°08'815.6
2019-Jul-07 20:31N 50°37' W 001°00'611.7
2019-Jul-07 20:00N 50°43' W 001°01'612.2
2019-Jul-07 19:30N 50°48' W 001°07'1 1.9
2019-Jul-07 18:59N 50°49' W 001°06'0 0.0
2019-Jul-07 18:29N 50°49' W 001°06'0 0.0
2019-Jul-07 17:59N 50°49' W 001°06'0 0.0
2019-Jul-07 17:29N 50°49' W 001°06'0 1.0
2019-Jul-07 17:00N 50°49' W 001°06'510.6
2019-Jul-07 16:30N 50°44' W 001°04'611.9
2019-Jul-07 16:01N 50°38' W 001°06'713.0
2019-Jul-07 15:30N 50°33' W 001°13'714.0
2019-Jul-07 15:01N 50°27' W 001°18'1514.3
2019-Jul-07 14:00N 50°17' W 001°35'1116.0
2019-Jul-07 13:17N 50°06' W 001°39'517.4
2019-Jul-07 13:00N 50°02' W 001°43'917.8
2019-Jul-07 12:31N 49°54' W 001°51'918.9
2019-Jul-07 12:01N 49°47' W 001°59'1020.7
2019-Jul-07 11:31N 49°37' W 002°00'1121.6
2019-Jul-07 11:01N 49°26' W 001°58'1019.8
2019-Jul-07 10:30N 49°16' W 001°53'917.6
2019-Jul-07 09:59N 49°07' W 001°52'918.2
2019-Jul-07 09:31N 48°59' W 001°54'1019.8
2019-Jul-07 09:01N 48°49' W 001°59'1019.1
2019-Jul-07 08:30N 48°40' W 002°02'2 2.9
2019-Jul-07 07:58N 48°38' W 002°02'0 0.0
2019-Jul-07 07:28N 48°38' W 002°02'0 0.0
2019-Jul-07 06:55N 48°38' W 002°02'0 0.1
2019-Jul-07 06:01N 48°38' W 002°02'0 1.8
2019-Jul-07 06:00N 48°38' W 002°02'713.7
2019-Jul-07 05:30N 48°44' W 002°08'914.9
2019-Jul-07 04:54N 48°51' W 002°16'512.5
2019-Jul-07 04:30N 48°55' W 002°21'612.8
2019-Jul-07 04:00N 49°01' W 002°22'612.5
2019-Jul-07 03:30N 49°08' W 002°22'714.4
2019-Jul-07 03:01N 49°15' W 002°21'1717.3
2019-Jul-07 02:01N 49°31' W 002°12'917.0
2019-Jul-07 01:30N 49°39' W 002°07'916.3
2019-Jul-07 00:58N 49°47' W 002°00'914.3
2019-Jul-07 00:22N 49°53' W 001°52'613.9
2019-Jul-06 23:58N 49°58' W 001°47'813.3
2019-Jul-06 23:22N 50°04' W 001°39'  
Track history (hours):
 
Tides and Currents Weather Stations Pressure Air Temp Water Temp Dewpoint Dewpoint Depression Visibility Wind Speed Wind Dir Waves Ship Positions

Bretagne

Operator: Brittany Ferries

Last reported at 2019-Jul-16 23:00 UTC. Time now 2019-Jul-16 23:05 UTC.
Position N 50°10' W 001°37'.

Length 151 m; beam 27 m.

Type: Ship. MMSI: 227286000.

Date/timePositionNaut miles runAvg speedWind from/ knotsBaromVisibWave heightAir tempDewpointWater temp
2019-Jul-16 23:00N 50°10' W 001°37'816.0
2019-Jul-16 22:30N 50°16' W 001°31'815.5
2019-Jul-16 22:00N 50°22' W 001°23'714.8
2019-Jul-16 21:30N 50°28' W 001°16'714.1
2019-Jul-16 21:01N 50°34' W 001°10'713.2
2019-Jul-16 20:31N 50°40' W 001°05'5 9.5
2019-Jul-16 20:00N 50°45' W 001°05'4 8.5
2019-Jul-16 19:31N 50°48' W 001°07'1 1.6
2019-Jul-16 18:59N 50°49' W 001°06'0 0.0
2019-Jul-16 18:29N 50°49' W 001°06'0 0.0
2019-Jul-16 17:59N 50°49' W 001°06'0 0.0
2019-Jul-16 17:29N 50°49' W 001°06'1 1.7
2019-Jul-16 17:00N 50°48' W 001°07'611.6
2019-Jul-16 16:31N 50°43' W 001°03'612.0
2019-Jul-16 16:00N 50°37' W 001°06'918.3
2019-Jul-16 15:31N 50°30' W 001°14'918.2
2019-Jul-16 15:00N 50°22' W 001°23'918.0
2019-Jul-16 14:30N 50°15' W 001°30'917.3
2019-Jul-16 14:00N 50°08' W 001°38'917.0
2019-Jul-16 13:29N 50°00' W 001°46'916.7
2019-Jul-16 12:59N 49°53' W 001°53'816.3
2019-Jul-16 12:28N 49°47' W 002°01'714.5
2019-Jul-16 12:00N 49°41' W 002°06'816.4
2019-Jul-16 11:30N 49°33' W 002°11'918.3
2019-Jul-16 11:00N 49°25' W 002°16'1119.0
2019-Jul-16 10:25N 49°14' W 002°22'1220.1
2019-Jul-16 09:49N 49°02' W 002°22'620.5
2019-Jul-16 09:30N 48°56' W 002°21'1120.7
2019-Jul-16 09:00N 48°47' W 002°12'1018.9
2019-Jul-16 08:28N 48°39' W 002°03'1 2.0
2019-Jul-16 07:55N 48°38' W 002°02'0 0.0
2019-Jul-16 07:27N 48°38' W 002°02'0 0.0
2019-Jul-16 06:46N 48°38' W 002°02'0 0.0
2019-Jul-16 06:28N 48°38' W 002°02'0 0.2
2019-Jul-16 06:00N 48°38' W 002°02'611.2
2019-Jul-16 05:30N 48°43' W 002°07'711.4
2019-Jul-16 04:55N 48°49' W 002°12'512.1
2019-Jul-16 04:30N 48°52' W 002°18'612.5
2019-Jul-16 04:00N 48°58' W 002°22'612.8
2019-Jul-16 03:30N 49°04' W 002°22'613.0
2019-Jul-16 03:00N 49°10' W 002°22'713.5
2019-Jul-16 02:30N 49°17' W 002°21'713.3
2019-Jul-16 02:01N 49°23' W 002°17'714.1
2019-Jul-16 01:31N 49°30' W 002°12'714.6
2019-Jul-16 01:01N 49°36' W 002°07'1019.4
2019-Jul-16 00:31N 49°45' W 002°01'917.9
2019-Jul-16 00:01N 49°53' W 001°54'917.1
2019-Jul-15 23:30N 49°60' W 001°46'816.4
2019-Jul-15 23:01N 50°07' W 001°40'816.0
2019-Jul-15 22:30N 50°14' W 001°33'815.4
2019-Jul-15 22:01N 50°20' W 001°26'815.0
2019-Jul-15 21:30N 50°26' W 001°19'714.3
2019-Jul-15 21:01N 50°32' W 001°13'713.6
2019-Jul-15 20:31N 50°37' W 001°07'612.2
2019-Jul-15 20:01N 50°43' W 001°03'611.7
2019-Jul-15 19:30N 50°48' W 001°07'1 1.7
2019-Jul-15 18:58N 50°49' W 001°06'0 0.0
2019-Jul-15 18:28N 50°49' W 001°06'0 0.0
2019-Jul-15 17:58N 50°49' W 001°06'0 0.0
2019-Jul-15 17:28N 50°49' W 001°06'1 2.5
2019-Jul-15 17:00N 50°48' W 001°07'713.5
2019-Jul-15 16:30N 50°42' W 001°03'816.9
2019-Jul-15 16:00N 50°34' W 001°09'1019.1
2019-Jul-15 15:30N 50°26' W 001°17'1018.6
2019-Jul-15 14:59N 50°18' W 001°26'918.2
2019-Jul-15 14:30N 50°11' W 001°33'917.5
2019-Jul-15 13:59N 50°03' W 001°41'816.8
2019-Jul-15 13:30N 49°57' W 001°49'1016.6
2019-Jul-15 12:56N 49°49' W 001°58'715.6
2019-Jul-15 12:31N 49°44' W 002°03'714.7
2019-Jul-15 12:00N 49°37' W 002°07'816.8
2019-Jul-15 11:30N 49°29' W 002°13'917.7
2019-Jul-15 11:00N 49°21' W 002°18'918.2
2019-Jul-15 10:30N 49°12' W 002°22'1019.7
2019-Jul-15 10:00N 49°02' W 002°22'2719.1
2019-Jul-15 08:37N 48°39' W 002°03'18 4.5
2019-Jul-15 04:34N 48°53' W 002°20'1212.3
2019-Jul-15 03:33N 49°06' W 002°23'113.1
2019-Jul-15 03:28N 49°07' W 002°22'613.0
2019-Jul-15 03:00N 49°13' W 002°22'612.3
2019-Jul-15 02:30N 49°19' W 002°20'612.6
2019-Jul-15 02:00N 49°24' W 002°15'713.3
2019-Jul-15 01:30N 49°30' W 002°10'713.8
2019-Jul-15 01:00N 49°36' W 002°06'918.1
2019-Jul-15 00:31N 49°45' W 002°01'1218.2
2019-Jul-14 23:53N 49°55' W 001°52'1717.2
2019-Jul-14 22:53N 50°09' W 001°38'1016.1
2019-Jul-14 22:15N 50°17' W 001°28'1014.9
2019-Jul-14 21:35N 50°26' W 001°19'111.7
2019-Jul-14 21:29N 50°26' W 001°18'511.4
2019-Jul-14 21:00N 50°31' W 001°13'612.1
2019-Jul-14 20:30N 50°36' W 001°08'713.7
2019-Jul-14 20:00N 50°42' W 001°03'612.8
2019-Jul-14 19:30N 50°48' W 001°07'1 2.3
2019-Jul-14 19:00N 50°49' W 001°06'0 0.0
2019-Jul-14 18:30N 50°49' W 001°06'0 0.0
2019-Jul-14 18:00N 50°49' W 001°06'0 0.0
2019-Jul-14 17:30N 50°49' W 001°06'1 2.8
2019-Jul-14 17:01N 50°47' W 001°07'4 7.9
2019-Jul-14 16:30N 50°44' W 001°03'714.1
2019-Jul-14 16:00N 50°37' W 001°07'1020.2
2019-Jul-14 15:30N 50°29' W 001°17'1119.4
2019-Jul-14 14:55N 50°20' W 001°27'1019.0
2019-Jul-14 14:23N 50°12' W 001°36'718.3
2019-Jul-14 14:00N 50°06' W 001°42'917.8
2019-Jul-14 13:31N 49°59' W 001°50'917.3
2019-Jul-14 13:00N 49°52' W 001°59'816.7
2019-Jul-14 12:30N 49°44' W 002°04'815.3
2019-Jul-14 12:01N 49°37' W 002°08'816.7
2019-Jul-14 11:30N 49°29' W 002°13'917.3
2019-Jul-14 11:00N 49°21' W 002°18'917.5
2019-Jul-14 10:30N 49°13' W 002°21'1019.2
2019-Jul-14 10:00N 49°03' W 002°22'26 6.2
2019-Jul-14 05:46N 48°40' W 002°05'1512.2
2019-Jul-14 04:34N 48°51' W 002°18'111.7
2019-Jul-14 04:28N 48°52' W 002°20'511.2
2019-Jul-14 04:00N 48°57' W 002°22'612.0
2019-Jul-14 03:31N 49°03' W 002°22'612.3
2019-Jul-14 03:01N 49°09' W 002°22'612.0
2019-Jul-14 02:30N 49°15' W 002°21'611.5
2019-Jul-14 02:01N 49°21' W 002°19'3414.6
2019-Jul-13 23:39N 49°51' W 001°54'3516.7
2019-Jul-13 21:31N 50°21' W 001°24'615.9
2019-Jul-13 21:08N 50°26' W 001°19'212.0
2019-Jul-13 21:00N 50°27' W 001°18'612.5
2019-Jul-13 20:30N 50°32' W 001°12'713.0
2019-Jul-13 20:01N 50°38' W 001°06'612.8
2019-Jul-13 19:30N 50°44' W 001°04'5 9.4
2019-Jul-13 19:00N 50°49' W 001°06'0 0.3
2019-Jul-13 18:30N 50°49' W 001°06'0 0.0
2019-Jul-13 18:00N 50°49' W 001°06'0 0.0
2019-Jul-13 17:30N 50°49' W 001°06'0 0.0
2019-Jul-13 17:00N 50°49' W 001°06'3 6.5
2019-Jul-13 16:30N 50°45' W 001°05'713.5
2019-Jul-13 16:01N 50°39' W 001°05'1020.5
2019-Jul-13 15:30N 50°29' W 001°12'1020.0
2019-Jul-13 15:00N 50°21' W 001°21'2019.5
2019-Jul-13 13:59N 50°04' W 001°37'1018.6
2019-Jul-13 13:27N 49°57' W 001°47'1118.4
2019-Jul-13 12:49N 49°48' W 001°59'617.5
2019-Jul-13 12:30N 49°43' W 002°03'816.8
2019-Jul-13 12:01N 49°36' W 002°08'917.4
2019-Jul-13 11:30N 49°27' W 002°13'917.2
2019-Jul-13 11:01N 49°20' W 002°20'917.5
2019-Jul-13 10:30N 49°11' W 002°21'1318.8
2019-Jul-13 09:50N 48°59' W 002°21'1219.5
2019-Jul-13 09:13N 48°48' W 002°14'419.9
2019-Jul-13 09:00N 48°44' W 002°10'815.4
2019-Jul-13 08:30N 48°38' W 002°02'0 0.0
2019-Jul-13 07:56N 48°38' W 002°02'0 0.0
2019-Jul-13 07:26N 48°38' W 002°02'0 0.0
2019-Jul-13 07:00N 48°38' W 002°02'0 0.0
2019-Jul-13 06:30N 48°38' W 002°02'0 0.7
2019-Jul-13 06:00N 48°39' W 002°02'815.6
2019-Jul-13 05:31N 48°45' W 002°09'917.9
2019-Jul-13 05:00N 48°49' W 002°21'1018.9
2019-Jul-13 04:28N 48°57' W 002°30'816.0
2019-Jul-13 03:57N 49°06' W 002°30'716.8
2019-Jul-13 03:31N 49°11' W 002°23'714.7
2019-Jul-13 03:01N 49°18' W 002°20'714.4
2019-Jul-13 02:30N 49°25' W 002°16'715.0
2019-Jul-13 02:00N 49°32' W 002°11'815.2
2019-Jul-13 01:31N 49°39' W 002°07'815.7
2019-Jul-13 01:01N 49°46' W 002°01'816.5
2019-Jul-13 00:30N 49°53' W 001°54'917.1
2019-Jul-12 23:57N 50°01' W 001°45'2317.4
2019-Jul-12 22:37N 50°20' W 001°25'417.0
2019-Jul-12 22:22N 50°23' W 001°22'717.0
2019-Jul-12 21:57N 50°30' W 001°16'818.0
2019-Jul-12 21:31N 50°36' W 001°09'815.9
2019-Jul-12 21:01N 50°43' W 001°03'612.4
2019-Jul-12 20:31N 50°48' W 001°07'1 1.5
2019-Jul-12 19:58N 50°49' W 001°06'0 0.0
2019-Jul-12 19:28N 50°49' W 001°06'0 0.0
2019-Jul-12 18:58N 50°49' W 001°06'0 0.0
2019-Jul-12 18:28N 50°49' W 001°06'0 0.0
2019-Jul-12 17:58N 50°49' W 001°06'0 0.9
2019-Jul-12 17:31N 50°49' W 001°06'510.2
2019-Jul-12 17:01N 50°44' W 001°04'714.6
2019-Jul-12 16:31N 50°37' W 001°06'1121.0
2019-Jul-12 16:00N 50°28' W 001°15'1020.7
2019-Jul-12 15:30N 50°19' W 001°23'1420.5
2019-Jul-12 14:49N 50°08' W 001°38'620.3
2019-Jul-12 14:30N 50°03' W 001°43'1120.1
2019-Jul-12 13:57N 49°54' W 001°53'816.9
2019-Jul-12 13:29N 49°47' W 001°59'1019.8
2019-Jul-12 13:00N 49°39' W 002°06'1019.4
2019-Jul-12 12:30N 49°30' W 002°12'918.8
2019-Jul-12 12:00N 49°21' W 002°18'918.4
2019-Jul-12 11:30N 49°12' W 002°21'1318.1
2019-Jul-12 10:48N 48°60' W 002°22'1017.9
2019-Jul-12 10:14N 48°50' W 002°16'15 6.4
2019-Jul-12 07:55N 48°38' W 002°02'0 0.1
2019-Jul-12 06:03N 48°38' W 002°02'0 0.7
2019-Jul-12 06:00N 48°38' W 002°02'712.1
2019-Jul-12 05:28N 48°44' W 002°07'510.6
2019-Jul-12 05:00N 48°48' W 002°12'610.6
2019-Jul-12 04:28N 48°52' W 002°18'511.0
2019-Jul-12 04:00N 48°56' W 002°22'714.6
2019-Jul-12 03:30N 49°03' W 002°24'914.5
2019-Jul-12 02:54N 49°12' W 002°25'1613.0
2019-Jul-12 01:41N 49°27' W 002°15'513.8
2019-Jul-12 01:18N 49°31' W 002°12'413.6
2019-Jul-12 01:00N 49°35' W 002°09'814.0
2019-Jul-12 00:28N 49°42' W 002°04'714.5
2019-Jul-12 00:01N 49°48' W 001°60'815.6
2019-Jul-11 23:30N 49°54' W 001°52'816.1
2019-Jul-11 23:01N 50°01' W 001°45'816.4
2019-Jul-11 22:30N 50°08' W 001°38'816.4
2019-Jul-11 22:01N 50°14' W 001°31'816.5
2019-Jul-11 21:31N 50°21' W 001°24'816.4
2019-Jul-11 21:00N 50°28' W 001°17'917.2
2019-Jul-11 20:31N 50°35' W 001°09'815.6
2019-Jul-11 20:01N 50°42' W 001°03'612.4
2019-Jul-11 19:30N 50°48' W 001°07'1 2.3
2019-Jul-11 18:59N 50°49' W 001°06'0 0.0
2019-Jul-11 18:29N 50°49' W 001°06'0 0.0
2019-Jul-11 17:59N 50°49' W 001°06'0 0.0
2019-Jul-11 17:30N 50°49' W 001°06'1 1.7
2019-Jul-11 17:00N 50°48' W 001°07'510.6
2019-Jul-11 16:31N 50°44' W 001°04'713.3
2019-Jul-11 16:00N 50°37' W 001°06'816.8
2019-Jul-11 15:30N 50°30' W 001°13'816.7
2019-Jul-11 15:00N 50°23' W 001°20'817.0
2019-Jul-11 14:30N 50°16' W 001°28'917.2
2019-Jul-11 14:00N 50°09' W 001°36'918.8
2019-Jul-11 13:30N 50°01' W 001°44'1120.8
2019-Jul-11 13:00N 49°53' W 001°54'1021.2
2019-Jul-11 12:30N 49°44' W 002°03'1020.6
2019-Jul-11 12:00N 49°34' W 002°08'1019.4
2019-Jul-11 11:30N 49°26' W 002°14'918.9
2019-Jul-11 11:00N 49°17' W 002°20'918.2
2019-Jul-11 10:30N 49°08' W 002°22'918.2
2019-Jul-11 10:00N 48°59' W 002°21'917.7
2019-Jul-11 09:30N 48°50' W 002°18'918.4
2019-Jul-11 09:00N 48°44' W 002°08'712.3
2019-Jul-11 08:28N 48°38' W 002°02'0 0.0
2019-Jul-11 07:58N 48°38' W 002°02'0 0.0
2019-Jul-11 07:28N 48°38' W 002°02'0 0.0
2019-Jul-11 06:58N 48°38' W 002°02'0 0.0
2019-Jul-11 06:28N 48°38' W 002°02'0 0.2
2019-Jul-11 06:00N 48°38' W 002°02'713.9
2019-Jul-11 05:30N 48°44' W 002°08'510.8
2019-Jul-11 05:01N 48°48' W 002°13'510.4
2019-Jul-11 04:30N 48°52' W 002°18'5 9.9
2019-Jul-11 04:00N 48°57' W 002°22'611.7
2019-Jul-11 03:30N 49°02' W 002°23'714.8
2019-Jul-11 03:00N 49°10' W 002°22'714.2
2019-Jul-11 02:30N 49°17' W 002°21'713.4
2019-Jul-11 02:00N 49°23' W 002°17'612.9
2019-Jul-11 01:30N 49°29' W 002°13'713.3
2019-Jul-11 01:00N 49°35' W 002°09'612.6
2019-Jul-11 00:30N 49°40' W 002°04'611.4
2019-Jul-10 23:56N 49°46' W 001°59'614.2
2019-Jul-10 23:30N 49°51' W 001°54'915.3
2019-Jul-10 22:56N 49°59' W 001°47'716.0
2019-Jul-10 22:30N 50°05' W 001°42'816.4
2019-Jul-10 22:00N 50°11' W 001°34'816.2
2019-Jul-10 21:31N 50°18' W 001°27'816.5
2019-Jul-10 21:01N 50°25' W 001°20'917.3
2019-Jul-10 20:31N 50°32' W 001°13'917.4
2019-Jul-10 20:01N 50°39' W 001°05'613.0
2019-Jul-10 19:31N 50°46' W 001°05'3 5.7
2019-Jul-10 18:59N 50°49' W 001°06'0 0.0
2019-Jul-10 18:30N 50°49' W 001°06'0 0.0
2019-Jul-10 18:00N 50°49' W 001°06'0 0.0
2019-Jul-10 17:28N 50°49' W 001°06'0 0.0
2019-Jul-10 17:00N 50°49' W 001°06'2 4.4
2019-Jul-10 16:30N 50°46' W 001°06'612.5
2019-Jul-10 16:00N 50°40' W 001°03'816.0
2019-Jul-10 15:31N 50°34' W 001°11'917.1
2019-Jul-10 15:00N 50°27' W 001°18'816.8
2019-Jul-10 14:30N 50°20' W 001°25'917.1
2019-Jul-10 14:00N 50°13' W 001°32'917.3
2019-Jul-10 13:30N 50°05' W 001°40'919.0
2019-Jul-10 13:00N 49°58' W 001°48'1020.0
2019-Jul-10 12:30N 49°49' W 001°57'1122.2
2019-Jul-10 12:01N 49°39' W 002°02'1021.0
2019-Jul-10 11:31N 49°28' W 002°01'918.1
2019-Jul-10 11:01N 49°20' W 001°56'917.4
2019-Jul-10 10:31N 49°12' W 001°52'918.1
2019-Jul-10 10:00N 49°02' W 001°51'1019.1
2019-Jul-10 09:30N 48°54' W 001°58'1119.9
2019-Jul-10 08:58N 48°44' W 002°04'613.0
2019-Jul-10 08:30N 48°38' W 002°02'0 0.0
2019-Jul-10 07:54N 48°38' W 002°02'0 0.0
2019-Jul-10 07:27N 48°38' W 002°02'0 0.0
2019-Jul-10 06:51N 48°38' W 002°02'0 0.0
2019-Jul-10 06:25N 48°38' W 002°02'0 0.0
2019-Jul-10 05:57N 48°38' W 002°02'0 0.1
2019-Jul-10 05:29N 48°38' W 002°02'4 8.3
2019-Jul-10 05:00N 48°41' W 002°06'918.2
2019-Jul-10 04:31N 48°49' W 002°14'918.1
2019-Jul-10 04:00N 48°56' W 002°22'918.3
2019-Jul-10 03:30N 49°05' W 002°25'918.0
2019-Jul-10 03:01N 49°14' W 002°24'918.1
2019-Jul-10 02:31N 49°22' W 002°17'917.4
2019-Jul-10 02:01N 49°30' W 002°12'917.3
2019-Jul-10 01:30N 49°38' W 002°07'815.2
2019-Jul-10 01:00N 49°45' W 002°03'815.3
2019-Jul-10 00:30N 49°51' W 001°55'917.2
2019-Jul-10 00:00N 49°58' W 001°48'918.2
2019-Jul-09 23:30N 50°06' W 001°40'918.8
2019-Jul-09 23:00N 50°13' W 001°32'1019.2
2019-Jul-09 22:30N 50°21' W 001°24'1019.4
2019-Jul-09 22:00N 50°30' W 001°16'1019.5
2019-Jul-09 21:31N 50°37' W 001°07'612.7
2019-Jul-09 21:00N 50°44' W 001°04'510.2
2019-Jul-09 20:30N 50°48' W 001°07'1 1.7
2019-Jul-09 19:59N 50°49' W 001°06'0 0.0
2019-Jul-09 19:29N 50°49' W 001°06'0 0.0
2019-Jul-09 18:59N 50°49' W 001°06'0 0.5
2019-Jul-09 18:31N 50°49' W 001°06'3 6.3
2019-Jul-09 18:01N 50°46' W 001°05'4 7.8
2019-Jul-09 17:30N 50°42' W 001°03'612.7
2019-Jul-09 17:01N 50°36' W 001°08'815.3
2019-Jul-09 16:31N 50°30' W 001°13'816.3
2019-Jul-09 16:00N 50°22' W 001°20'815.7
2019-Jul-09 15:30N 50°16' W 001°26'612.9
2019-Jul-09 15:00N 50°11' W 001°33'713.1
2019-Jul-09 14:30N 50°06' W 001°39'714.5
2019-Jul-09 14:00N 49°60' W 001°45'918.2
2019-Jul-09 13:30N 49°52' W 001°53'1019.9
2019-Jul-09 13:00N 49°43' W 002°00'1019.6
2019-Jul-09 12:30N 49°34' W 002°00'917.9
2019-Jul-09 12:01N 49°25' W 001°58'1120.0
2019-Jul-09 11:27N 49°14' W 001°51'919.8
2019-Jul-09 11:00N 49°06' W 001°51'918.9
2019-Jul-09 10:30N 48°57' W 001°56'1719.2
2019-Jul-09 09:38N 48°41' W 002°02'110.6
2019-Jul-09 09:30N 48°39' W 002°03'1 1.4
2019-Jul-09 08:44N 48°38' W 002°02'0 0.0
2019-Jul-09 08:29N 48°38' W 002°02'0 0.0
2019-Jul-09 07:52N 48°38' W 002°02'0 0.1
2019-Jul-09 07:08N 48°38' W 002°02'2 9.1
2019-Jul-09 06:54N 48°40' W 002°04'712.1
2019-Jul-09 06:19N 48°46' W 002°10'411.9
2019-Jul-09 05:59N 48°49' W 002°14'611.8
2019-Jul-09 05:27N 48°54' W 002°20'1012.0
2019-Jul-09 04:38N 49°03' W 002°22'212.1
2019-Jul-09 04:30N 49°05' W 002°22'612.2
2019-Jul-09 04:00N 49°11' W 002°22'612.4
2019-Jul-09 03:30N 49°17' W 002°21'612.0
2019-Jul-09 03:00N 49°23' W 002°18'611.6
2019-Jul-09 02:30N 49°28' W 002°13'612.2
2019-Jul-09 02:00N 49°33' W 002°09'714.7
2019-Jul-09 01:30N 49°40' W 002°06'612.6
2019-Jul-09 01:00N 49°46' W 002°01'611.7
2019-Jul-09 00:30N 49°50' W 001°55'612.6
2019-Jul-09 00:00N 49°54' W 001°47'713.4
2019-Jul-08 23:30N 49°59' W 001°40'714.8
2019-Jul-08 23:01N 50°05' W 001°35'612.3
2019-Jul-08 22:30N 50°11' W 001°30'813.2
2019-Jul-08 21:53N 50°17' W 001°22'616.2
2019-Jul-08 21:31N 50°22' W 001°18'816.3
2019-Jul-08 21:01N 50°29' W 001°10'816.9
2019-Jul-08 20:31N 50°36' W 001°02'714.7
2019-Jul-08 20:00N 50°43' W 000°60'713.8
2019-Jul-08 19:30N 50°48' W 001°07'1 1.9
2019-Jul-08 18:59N 50°49' W 001°06'0 0.0
2019-Jul-08 18:29N 50°49' W 001°06'0 0.0
2019-Jul-08 17:59N 50°49' W 001°06'0 0.0
2019-Jul-08 17:29N 50°49' W 001°06'3 5.7
2019-Jul-08 17:00N 50°46' W 001°05'612.7
2019-Jul-08 16:30N 50°40' W 001°05'1817.5
2019-Jul-08 15:30N 50°24' W 001°17'917.6
2019-Jul-08 15:00N 50°17' W 001°25'917.9
2019-Jul-08 14:30N 50°10' W 001°34'917.4
2019-Jul-08 14:00N 50°04' W 001°43'815.2
2019-Jul-08 13:30N 49°58' W 001°51'815.1
2019-Jul-08 13:00N 49°51' W 001°56'1019.4
2019-Jul-08 12:31N 49°42' W 002°03'1122.2
2019-Jul-08 12:01N 49°31' W 001°59'1121.4
2019-Jul-08 11:31N 49°21' W 001°56'918.6
2019-Jul-08 11:01N 49°12' W 001°51'1117.5
2019-Jul-08 10:21N 49°01' W 001°53'2316.7
2019-Jul-08 08:59N 48°38' W 002°02'0 0.0
2019-Jul-08 07:08N 48°38' W 002°02'0 0.1
2019-Jul-08 06:39N 48°38' W 002°02'211.8
2019-Jul-08 06:27N 48°40' W 002°05'716.3
2019-Jul-08 06:00N 48°46' W 002°11'815.3
2019-Jul-08 05:30N 48°52' W 002°18'911.8
2019-Jul-08 04:46N 49°00' W 002°22'312.5
2019-Jul-08 04:30N 49°04' W 002°22'612.4
2019-Jul-08 04:00N 49°10' W 002°23'612.4
2019-Jul-08 03:30N 49°16' W 002°22'713.2
2019-Jul-08 03:00N 49°22' W 002°18'612.6
2019-Jul-08 02:30N 49°28' W 002°14'612.1
2019-Jul-08 02:00N 49°33' W 002°10'815.8
2019-Jul-08 01:30N 49°41' W 002°06'913.5
2019-Jul-08 00:48N 49°49' W 001°59'713.5
2019-Jul-08 00:19N 49°54' W 001°53'413.3
2019-Jul-08 00:00N 49°57' W 001°49'1113.3
2019-Jul-07 23:12N 50°06' W 001°38'313.8
2019-Jul-07 23:00N 50°08' W 001°36'714.1
2019-Jul-07 22:30N 50°13' W 001°29'1314.7
2019-Jul-07 21:38N 50°24' W 001°17'215.0
2019-Jul-07 21:29N 50°25' W 001°14'715.2
2019-Jul-07 21:01N 50°31' W 001°08'815.6
2019-Jul-07 20:31N 50°37' W 001°00'611.7
2019-Jul-07 20:00N 50°43' W 001°01'612.2
2019-Jul-07 19:30N 50°48' W 001°07'1 1.9
2019-Jul-07 18:59N 50°49' W 001°06'0 0.0
2019-Jul-07 18:29N 50°49' W 001°06'0 0.0
2019-Jul-07 17:59N 50°49' W 001°06'0 0.0
2019-Jul-07 17:29N 50°49' W 001°06'0 1.0
2019-Jul-07 17:00N 50°49' W 001°06'510.6
2019-Jul-07 16:30N 50°44' W 001°04'611.9
2019-Jul-07 16:01N 50°38' W 001°06'713.0
2019-Jul-07 15:30N 50°33' W 001°13'714.0
2019-Jul-07 15:01N 50°27' W 001°18'1514.3
2019-Jul-07 14:00N 50°17' W 001°35'1116.0
2019-Jul-07 13:17N 50°06' W 001°39'517.4
2019-Jul-07 13:00N 50°02' W 001°43'917.8
2019-Jul-07 12:31N 49°54' W 001°51'918.9
2019-Jul-07 12:01N 49°47' W 001°59'1020.7
2019-Jul-07 11:31N 49°37' W 002°00'1121.6
2019-Jul-07 11:01N 49°26' W 001°58'1019.8
2019-Jul-07 10:30N 49°16' W 001°53'917.6
2019-Jul-07 09:59N 49°07' W 001°52'918.2
2019-Jul-07 09:31N 48°59' W 001°54'1019.8
2019-Jul-07 09:01N 48°49' W 001°59'1019.1
2019-Jul-07 08:30N 48°40' W 002°02'2 2.9
2019-Jul-07 07:58N 48°38' W 002°02'0 0.0
2019-Jul-07 07:28N 48°38' W 002°02'0 0.0
2019-Jul-07 06:55N 48°38' W 002°02'0 0.1
2019-Jul-07 06:01N 48°38' W 002°02'0 1.8
2019-Jul-07 06:00N 48°38' W 002°02'713.7
2019-Jul-07 05:30N 48°44' W 002°08'914.9
2019-Jul-07 04:54N 48°51' W 002°16'512.5
2019-Jul-07 04:30N 48°55' W 002°21'612.8
2019-Jul-07 04:00N 49°01' W 002°22'612.5
2019-Jul-07 03:30N 49°08' W 002°22'714.4
2019-Jul-07 03:01N 49°15' W 002°21'1717.3
2019-Jul-07 02:01N 49°31' W 002°12'917.0
2019-Jul-07 01:30N 49°39' W 002°07'916.3
2019-Jul-07 00:58N 49°47' W 002°00'914.3
2019-Jul-07 00:22N 49°53' W 001°52'613.9
2019-Jul-06 23:58N 49°58' W 001°47'813.3
2019-Jul-06 23:22N 50°04' W 001°39'  

Dump ship's entire track history